createdAt,value
2023-04-18T00:01:44.879Z,94546.59
2023-04-18T00:04:12.437Z,94537.00
2023-04-18T00:06:39.578Z,94536.13
2023-04-18T00:09:06.354Z,94541.16
2023-04-18T00:11:33.351Z,94540.19
2023-04-18T00:14:00.278Z,94535.63
2023-04-18T00:16:28.447Z,94534.66
2023-04-18T00:18:57.194Z,94533.66
2023-04-18T00:21:25.776Z,94529.41
2023-04-18T00:23:52.881Z,94530.41
2023-04-18T00:26:19.826Z,94532.19
2023-04-18T00:28:48.244Z,94532.88
2023-04-18T00:31:15.004Z,94533.75
2023-04-18T00:33:41.802Z,94524.69
2023-04-18T00:36:08.833Z,94527.28
2023-04-18T00:38:35.778Z,94528.44
2023-04-18T00:41:02.801Z,94520.44
2023-04-18T00:43:29.753Z,94511.47
2023-04-18T00:45:57.258Z,94512.34
2023-04-18T00:48:25.055Z,94515.59
2023-04-18T00:50:54.521Z,94510.88
2023-04-18T00:53:21.901Z,94512.53
2023-04-18T00:55:48.940Z,94513.63
2023-04-18T00:58:15.965Z,94507.31
2023-04-18T01:00:43.021Z,94507.81
2023-04-18T01:03:14.475Z,94505.66
2023-04-18T01:05:42.445Z,94501.41
2023-04-18T01:08:09.248Z,94499.53
2023-04-18T01:10:36.172Z,94501.41
2023-04-18T01:13:17.510Z,94506.22
2023-04-18T01:15:45.984Z,94500.31
2023-04-18T01:18:17.618Z,94499.31
2023-04-18T01:20:48.644Z,94487.59
2023-04-18T01:23:16.649Z,94493.41
2023-04-18T01:25:44.022Z,94487.59
2023-04-18T01:28:12.592Z,94493.41
2023-04-18T01:30:39.306Z,94489.66
2023-04-18T01:33:06.569Z,94487.78
2023-04-18T01:35:33.735Z,94486.59
2023-04-18T01:38:00.715Z,94482.06
2023-04-18T01:40:27.576Z,94481.56
2023-04-18T01:42:54.503Z,94477.03
2023-04-18T01:45:22.381Z,94482.66
2023-04-18T01:47:49.180Z,94481.06
2023-04-18T01:50:16.012Z,94485.00
2023-04-18T01:52:43.098Z,94484.44
2023-04-18T01:55:10.440Z,94479.31
2023-04-18T01:57:38.569Z,94482.84
2023-04-18T02:00:06.394Z,94479.91
2023-04-18T02:02:41.235Z,94474.00
2023-04-18T02:05:08.766Z,94472.69
2023-04-18T02:07:38.527Z,94472.50
2023-04-18T02:10:05.838Z,94475.75
2023-04-18T02:12:32.796Z,94480.19
2023-04-18T02:14:59.964Z,94468.75
2023-04-18T02:17:26.714Z,94472.78
2023-04-18T02:19:54.527Z,94475.44
2023-04-18T02:22:21.161Z,94474.38
2023-04-18T02:24:47.765Z,94477.53
2023-04-18T02:27:15.279Z,94462.66
2023-04-18T02:29:41.908Z,94468.75
2023-04-18T02:32:09.160Z,94462.84
2023-04-18T02:34:36.598Z,94463.94
2023-04-18T02:37:03.736Z,94456.63
2023-04-18T02:39:31.803Z,94460.84
2023-04-18T02:41:58.862Z,94465.69
2023-04-18T02:44:25.608Z,94464.91
2023-04-18T02:46:52.473Z,94472.59
2023-04-18T02:49:19.215Z,94476.53
2023-04-18T02:51:46.632Z,94474.16
2023-04-18T02:54:13.753Z,94479.78
2023-04-18T02:57:02.312Z,94472.88
2023-04-18T02:59:54.893Z,94486.78
2023-04-18T03:02:39.951Z,94477.31
2023-04-18T03:05:26.487Z,94478.91
2023-04-18T03:07:56.757Z,94473.88
2023-04-18T03:10:23.614Z,94477.31
2023-04-18T03:12:50.627Z,94473.38
2023-04-18T03:15:18.377Z,94476.81
2023-04-18T03:17:46.346Z,94473.88
2023-04-18T03:20:14.479Z,94470.63
2023-04-18T03:22:41.322Z,94470.13
2023-04-18T03:25:08.615Z,94471.00
2023-04-18T03:27:45.382Z,94467.84
2023-04-18T03:30:14.906Z,94472.38
2023-04-18T03:32:44.296Z,94473.94
2023-04-18T03:35:11.200Z,94472.66
2023-04-18T03:37:38.465Z,94472.66
2023-04-18T03:40:06.077Z,94470.00
2023-04-18T03:42:32.938Z,94467.63
2023-04-18T03:44:59.682Z,94469.00
2023-04-18T03:47:26.948Z,94473.75
2023-04-18T03:49:57.423Z,94468.41
2023-04-18T03:52:27.512Z,94475.44
2023-04-18T03:54:56.024Z,94474.31
2023-04-18T03:57:26.409Z,94479.63
2023-04-18T03:59:54.055Z,94476.59
2023-04-18T04:02:21.473Z,94470.06
2023-04-18T04:04:50.069Z,94464.81
2023-04-18T04:07:16.981Z,94474.00
2023-04-18T04:09:43.674Z,94469.97
2023-04-18T04:12:10.351Z,94460.72
2023-04-18T04:14:37.030Z,94476.59
2023-04-18T04:17:03.852Z,94476.81
2023-04-18T04:19:31.874Z,94474.22
2023-04-18T04:22:08.269Z,94473.94
2023-04-18T04:24:38.428Z,94475.72
2023-04-18T04:27:05.897Z,94479.97
2023-04-18T04:29:36.250Z,94481.22
2023-04-18T04:32:05.752Z,94479.16
2023-04-18T04:34:36.941Z,94484.50
2023-04-18T04:37:06.114Z,94475.44
2023-04-18T04:39:39.555Z,94491.41
2023-04-18T04:42:25.126Z,94480.25
2023-04-18T04:44:59.132Z,94475.00
2023-04-18T04:47:26.311Z,94475.31
2023-04-18T04:49:54.058Z,94495.13
2023-04-18T04:52:20.736Z,94491.06
2023-04-18T04:54:48.190Z,94487.53
2023-04-18T04:57:18.011Z,94484.31
2023-04-18T04:59:44.760Z,94483.59
2023-04-18T05:02:12.224Z,94482.00
2023-04-18T05:04:39.327Z,94494.66
2023-04-18T05:07:06.193Z,94487.84
2023-04-18T05:09:32.834Z,94496.81
2023-04-18T05:11:59.575Z,94492.38
2023-04-18T05:14:26.459Z,94495.44
2023-04-18T05:16:53.180Z,94504.13
2023-04-18T05:19:19.858Z,94503.94
2023-04-18T05:21:46.693Z,94496.53
2023-04-18T05:24:13.508Z,94498.03
2023-04-18T05:26:40.526Z,94502.16
2023-04-18T05:29:07.288Z,94502.75
2023-04-18T05:31:34.111Z,94511.31
2023-04-18T05:34:01.157Z,94501.47
2023-04-18T05:36:27.840Z,94497.94
2023-04-18T05:38:54.503Z,94508.38
2023-04-18T05:41:21.272Z,94496.25
2023-04-18T05:44:01.878Z,94504.06
2023-04-18T05:46:32.182Z,94502.09
2023-04-18T05:48:58.898Z,94499.94
2023-04-18T05:51:26.520Z,94513.06
2023-04-18T05:53:53.213Z,94489.47
2023-04-18T05:56:20.031Z,94513.53
2023-04-18T05:58:47.691Z,94506.25
2023-04-18T06:01:14.446Z,94502.22
2023-04-18T06:03:41.726Z,94493.31
2023-04-18T06:06:08.694Z,94505.06
2023-04-18T06:08:35.431Z,94510.31
2023-04-18T06:11:02.326Z,94511.31
2023-04-18T06:13:29.036Z,94517.44
2023-04-18T06:15:55.786Z,94515.84
2023-04-18T06:18:22.463Z,94498.06
2023-04-18T06:20:49.409Z,94525.41
2023-04-18T06:23:16.795Z,94522.91
2023-04-18T06:25:43.586Z,94526.78
2023-04-18T06:28:10.435Z,94523.41
2023-04-18T06:30:37.296Z,94520.19
2023-04-18T06:33:04.035Z,94529.88
2023-04-18T06:35:31.251Z,94528.09
2023-04-18T06:37:57.981Z,94539.94
2023-04-18T06:40:24.619Z,94521.19
2023-04-18T06:42:51.695Z,94537.28
2023-04-18T06:45:18.490Z,94543.56
2023-04-18T06:47:45.601Z,94537.94
2023-04-18T06:50:12.333Z,94540.53
2023-04-18T06:52:42.601Z,94542.19
2023-04-18T06:55:09.513Z,94537.06
2023-04-18T06:57:36.452Z,94533.22
2023-04-18T07:00:04.974Z,94531.25
2023-04-18T07:02:31.976Z,94545.72
2023-04-18T07:04:58.658Z,94529.53
2023-04-18T07:07:26.521Z,94535.16
2023-04-18T07:09:54.027Z,94538.22
2023-04-18T07:12:20.918Z,94532.78
2023-04-18T07:14:47.566Z,94528.53
2023-04-18T07:17:14.298Z,94537.44
2023-04-18T07:19:41.530Z,94545.38
2023-04-18T07:22:08.244Z,94526.03
2023-04-18T07:24:35.005Z,94546.94
2023-04-18T07:27:03.377Z,94525.44
2023-04-18T07:29:30.191Z,94516.06
2023-04-18T07:31:58.051Z,94521.13
2023-04-18T07:34:26.731Z,94517.72
2023-04-18T07:36:53.476Z,94531.81
2023-04-18T07:39:20.157Z,94533.41
2023-04-18T07:41:46.837Z,94546.06
2023-04-18T07:44:13.778Z,94544.28
2023-04-18T07:46:40.969Z,94548.91
2023-04-18T07:49:07.747Z,94545.03
2023-04-18T07:51:35.101Z,94551.88
2023-04-18T07:54:01.940Z,94546.72
2023-04-18T07:56:28.765Z,94547.81
2023-04-18T07:58:55.750Z,94551.97
2023-04-18T08:01:24.736Z,94561.78
2023-04-18T08:03:53.488Z,94554.78
2023-04-18T08:06:21.459Z,94551.16
2023-04-18T08:08:48.208Z,94557.75
2023-04-18T08:11:14.908Z,94564.69
2023-04-18T08:13:41.628Z,94563.88
2023-04-18T08:16:08.904Z,94581.94
2023-04-18T08:18:35.974Z,94570.09
2023-04-18T08:21:02.639Z,94577.44
2023-04-18T08:23:29.383Z,94573.19
2023-04-18T08:25:56.074Z,94575.25
2023-04-18T08:28:23.063Z,94570.94
2023-04-18T08:30:50.460Z,94560.00
2023-04-18T08:33:18.130Z,94578.31
2023-04-18T08:35:44.833Z,94582.34
2023-04-18T08:38:11.562Z,94561.44
2023-04-18T08:40:38.669Z,94574.97
2023-04-18T08:43:12.374Z,94587.16
2023-04-18T08:45:40.202Z,94577.19
2023-04-18T08:48:07.772Z,94588.13
2023-04-18T08:50:34.555Z,94576.97
2023-04-18T08:53:01.551Z,94592.25
2023-04-18T08:55:28.319Z,94583.47
2023-04-18T08:57:55.706Z,94579.91
2023-04-18T09:00:23.733Z,94579.63
2023-04-18T09:02:55.176Z,94586.88
2023-04-18T09:05:23.204Z,94584.66
2023-04-18T09:07:53.184Z,94598.22
2023-04-18T09:10:29.018Z,94596.34
2023-04-18T09:12:57.818Z,94597.91
2023-04-18T09:15:29.452Z,94603.41
2023-04-18T09:17:58.571Z,94587.75
2023-04-18T09:20:41.536Z,94606.34
2023-04-18T09:23:11.035Z,94593.25
2023-04-18T09:25:45.471Z,94604.09
2023-04-18T09:28:28.262Z,94606.09
2023-04-18T09:31:09.357Z,94600.34
2023-04-18T09:33:37.885Z,94606.50
2023-04-18T09:36:17.582Z,94608.47
2023-04-18T09:38:44.491Z,94598.88
2023-04-18T09:41:12.965Z,94608.47
2023-04-18T09:43:39.671Z,94595.84
2023-04-18T09:46:07.963Z,94596.16
2023-04-18T09:48:35.329Z,94611.94
2023-04-18T09:51:10.840Z,94601.09
2023-04-18T09:53:40.328Z,94606.13
2023-04-18T09:56:12.777Z,94584.03
2023-04-18T09:58:42.237Z,94589.06
2023-04-18T10:01:09.415Z,94589.72
2023-04-18T10:03:45.382Z,94593.63
2023-04-18T10:06:16.256Z,94606.34
2023-04-18T10:08:45.739Z,94597.22
2023-04-18T10:11:12.577Z,94598.31
2023-04-18T10:13:43.216Z,94594.22
2023-04-18T10:16:11.749Z,94599.91
2023-04-18T10:18:38.684Z,94600.53
2023-04-18T10:21:05.817Z,94598.16
2023-04-18T10:23:32.558Z,94606.53
2023-04-18T10:25:59.416Z,94609.09
2023-04-18T10:28:27.795Z,94602.94
2023-04-18T10:31:02.970Z,94590.38
2023-04-18T10:33:37.306Z,94596.66
2023-04-18T10:36:08.915Z,94608.94
2023-04-18T10:38:38.914Z,94601.84
2023-04-18T10:41:49.470Z,94615.88
2023-04-18T10:44:25.022Z,94618.22
2023-04-18T10:46:51.852Z,94612.41
2023-04-18T10:49:32.593Z,94608.31
2023-04-18T10:52:01.661Z,94600.28
2023-04-18T10:54:40.765Z,94605.16
2023-04-18T10:57:09.085Z,94603.59
2023-04-18T10:59:41.318Z,94603.44
2023-04-18T11:02:30.037Z,94598.84
2023-04-18T11:04:59.704Z,94607.84
2023-04-18T11:07:33.075Z,94607.38
2023-04-18T11:09:59.977Z,94587.53
2023-04-18T11:12:34.551Z,94594.44
2023-04-18T11:15:09.254Z,94598.25
2023-04-18T11:17:36.208Z,94593.34
2023-04-18T11:20:09.180Z,94590.22
2023-04-18T11:22:46.182Z,94597.44
2023-04-18T11:25:13.267Z,94587.06
2023-04-18T11:27:48.311Z,94598.53
2023-04-18T11:30:15.414Z,94589.72
2023-04-18T11:32:42.235Z,94587.28
2023-04-18T11:35:10.671Z,94591.63
2023-04-18T11:37:38.672Z,94582.47
2023-04-18T11:40:08.683Z,94580.91
2023-04-18T11:42:37.482Z,94578.09
2023-04-18T11:45:08.867Z,94588.34
2023-04-18T11:47:35.598Z,94575.69
2023-04-18T11:50:06.816Z,94587.34
2023-04-18T11:52:35.269Z,94600.59
2023-04-18T11:55:19.561Z,94598.53
2023-04-18T11:58:04.583Z,94596.16
2023-04-18T12:00:34.429Z,94603.56
2023-04-18T12:03:04.569Z,94589.56
2023-04-18T12:05:33.604Z,94607.66
2023-04-18T12:08:28.072Z,94601.09
2023-04-18T12:10:55.355Z,94606.41
2023-04-18T12:13:26.869Z,94599.97
2023-04-18T12:15:54.623Z,94595.56
2023-04-18T12:18:21.573Z,94596.19
2023-04-18T12:20:54.309Z,94608.16
2023-04-18T12:23:48.176Z,94603.59
2023-04-18T12:26:18.332Z,94597.28
2023-04-18T12:28:46.473Z,94609.75
2023-04-18T12:31:13.226Z,94609.91
2023-04-18T12:33:39.895Z,94598.53
2023-04-18T12:36:08.592Z,94595.03
2023-04-18T12:38:35.661Z,94608.75
2023-04-18T12:41:02.420Z,94581.63
2023-04-18T12:43:31.750Z,94595.66
2023-04-18T12:45:59.552Z,94597.19
2023-04-18T12:48:26.217Z,94591.66
2023-04-18T12:50:52.895Z,94596.06
2023-04-18T12:53:19.640Z,94589.28
2023-04-18T12:55:46.357Z,94586.59
2023-04-18T12:58:18.712Z,94593.25
2023-04-18T13:00:45.979Z,94588.09
2023-04-18T13:03:13.553Z,94594.88
2023-04-18T13:05:40.561Z,94612.22
2023-04-18T13:08:16.031Z,94598.22
2023-04-18T13:10:44.416Z,94605.47
2023-04-18T13:13:11.207Z,94608.28
2023-04-18T13:15:38.286Z,94596.81
2023-04-18T13:18:06.705Z,94608.94
2023-04-18T13:20:34.464Z,94610.34
2023-04-18T13:23:03.225Z,94611.63
2023-04-18T13:25:30.074Z,94602.66
2023-04-18T13:27:58.513Z,94602.00
2023-04-18T13:30:25.455Z,94600.91
2023-04-18T13:32:52.267Z,94595.84
2023-04-18T13:35:19.067Z,94603.91
2023-04-18T13:37:46.355Z,94592.38
2023-04-18T13:40:13.775Z,94607.97
2023-04-18T13:42:40.544Z,94597.72
2023-04-18T13:45:07.713Z,94589.97
2023-04-18T13:47:34.988Z,94602.25
2023-04-18T13:50:01.893Z,94601.28
2023-04-18T13:52:28.628Z,94598.78
2023-04-18T13:54:55.547Z,94609.66
2023-04-18T13:57:23.348Z,94602.91
2023-04-18T13:59:50.130Z,94601.03
2023-04-18T14:02:17.086Z,94602.13
2023-04-18T14:04:43.949Z,94604.00
2023-04-18T14:07:10.811Z,94611.53
2023-04-18T14:09:37.538Z,94605.22
2023-04-18T14:12:04.674Z,94599.22
2023-04-18T14:14:31.412Z,94593.84
2023-04-18T14:16:58.140Z,94605.22
2023-04-18T14:19:25.121Z,94596.69
2023-04-18T14:21:51.940Z,94587.41
2023-04-18T14:24:18.723Z,94600.19
2023-04-18T14:26:45.465Z,94595.16
2023-04-18T14:29:12.502Z,94601.75
2023-04-18T14:31:39.386Z,94601.81
2023-04-18T14:34:06.602Z,94597.72
2023-04-18T14:36:33.297Z,94605.75
2023-04-18T14:39:00.030Z,94604.81
2023-04-18T14:41:26.957Z,94604.19
2023-04-18T14:43:53.645Z,94599.44
2023-04-18T14:46:20.995Z,94619.47
2023-04-18T14:48:47.916Z,94600.06
2023-04-18T14:51:17.409Z,94617.91
2023-04-18T14:53:44.947Z,94601.81
2023-04-18T14:56:11.870Z,94608.91
2023-04-18T14:58:38.560Z,94603.56
2023-04-18T15:01:05.558Z,94609.69
2023-04-18T15:03:33.181Z,94611.13
2023-04-18T15:06:00.212Z,94601.50
2023-04-18T15:08:27.042Z,94602.44
2023-04-18T15:10:53.755Z,94597.41
2023-04-18T15:13:20.626Z,94612.38
2023-04-18T15:15:54.575Z,94607.81
2023-04-18T15:18:21.320Z,94615.97
2023-04-18T15:20:48.008Z,94610.28
2023-04-18T15:23:15.099Z,94622.25
2023-04-18T15:25:42.795Z,94618.47
2023-04-18T15:28:09.565Z,94612.00
2023-04-18T15:30:36.524Z,94610.25
2023-04-18T15:33:03.318Z,94609.94
2023-04-18T15:35:30.114Z,94607.25
2023-04-18T15:37:57.672Z,94608.50
2023-04-18T15:40:24.465Z,94607.88
2023-04-18T15:42:53.573Z,94611.81
2023-04-18T15:45:21.384Z,94616.25
2023-04-18T15:47:48.458Z,94610.09
2023-04-18T15:50:16.334Z,94603.00
2023-04-18T15:52:43.563Z,94609.31
2023-04-18T15:55:12.344Z,94621.47
2023-04-18T15:57:39.608Z,94627.31
2023-04-18T16:00:11.968Z,94622.16
2023-04-18T16:02:38.875Z,94625.31
2023-04-18T16:05:06.179Z,94619.63
2023-04-18T16:07:32.899Z,94624.34
2023-04-18T16:10:02.608Z,94617.59
2023-04-18T16:12:29.717Z,94628.00
2023-04-18T16:14:56.429Z,94627.38
2023-04-18T16:17:23.171Z,94618.72
2023-04-18T16:19:49.925Z,94638.25
2023-04-18T16:22:16.688Z,94615.88
2023-04-18T16:24:43.345Z,94635.72
2023-04-18T16:27:10.158Z,94635.72
2023-04-18T16:29:36.796Z,94622.66
2023-04-18T16:32:03.661Z,94635.13
2023-04-18T16:34:30.514Z,94632.44
2023-04-18T16:36:57.193Z,94641.41
2023-04-18T16:39:23.935Z,94634.00
2023-04-18T16:41:51.245Z,94635.59
2023-04-18T16:44:17.967Z,94632.75
2023-04-18T16:46:44.707Z,94638.88
2023-04-18T16:49:11.608Z,94637.78
2023-04-18T16:51:38.697Z,94630.53
2023-04-18T16:54:06.071Z,94636.03
2023-04-18T16:56:33.940Z,94638.41
2023-04-18T16:59:00.638Z,94632.56
2023-04-18T17:01:27.409Z,94640.75
2023-04-18T17:03:54.170Z,94640.13
2023-04-18T17:06:22.805Z,94644.72
2023-04-18T17:08:49.705Z,94631.94
2023-04-18T17:11:16.403Z,94648.66
2023-04-18T17:13:43.083Z,94639.66
2023-04-18T17:16:09.839Z,94653.53
2023-04-18T17:18:37.157Z,94641.41
2023-04-18T17:21:04.067Z,94645.19
2023-04-18T17:23:32.787Z,94654.81
2023-04-18T17:25:59.934Z,94646.28
2023-04-18T17:28:26.655Z,94637.31
2023-04-18T17:30:53.392Z,94650.69
2023-04-18T17:33:21.204Z,94652.91
2023-04-18T17:35:48.321Z,94651.94
2023-04-18T17:38:16.429Z,94649.56
2023-04-18T17:40:43.146Z,94656.19
2023-04-18T17:43:11.225Z,94648.78
2023-04-18T17:45:38.674Z,94658.53
2023-04-18T17:48:05.622Z,94661.22
2023-04-18T17:50:32.377Z,94652.72
2023-04-18T17:52:59.083Z,94663.56
2023-04-18T17:55:26.712Z,94659.00
2023-04-18T17:57:53.354Z,94659.81
2023-04-18T18:00:20.235Z,94655.06
2023-04-18T18:02:47.129Z,94663.28
2023-04-18T18:05:13.981Z,94661.38
2023-04-18T18:07:43.625Z,94665.63
2023-04-18T18:10:11.604Z,94657.88
2023-04-18T18:12:39.921Z,94665.00
2023-04-18T18:15:08.246Z,94670.03
2023-04-18T18:17:35.184Z,94676.00
2023-04-18T18:20:02.048Z,94665.91
2023-04-18T18:22:28.713Z,94674.75
2023-04-18T18:24:56.099Z,94671.13
2023-04-18T18:27:22.805Z,94670.63
2023-04-18T18:29:50.447Z,94674.09
2023-04-18T18:32:17.155Z,94673.47
2023-04-18T18:34:43.854Z,94673.16
2023-04-18T18:37:10.509Z,94678.03
2023-04-18T18:39:37.408Z,94680.69
2023-04-18T18:42:04.165Z,94686.19
2023-04-18T18:44:30.800Z,94688.56
2023-04-18T18:46:58.820Z,94692.81
2023-04-18T18:49:26.686Z,94680.47
2023-04-18T18:51:53.576Z,94692.94
2023-04-18T18:54:20.354Z,94690.75
2023-04-18T18:56:47.070Z,94693.25
2023-04-18T18:59:14.056Z,94686.16
2023-04-18T19:01:41.225Z,94700.00
2023-04-18T19:04:08.103Z,94704.56
2023-04-18T19:06:35.633Z,94703.00
2023-04-18T19:09:02.388Z,94705.78
2023-04-18T19:11:29.681Z,94699.03
2023-04-18T19:13:56.449Z,94685.78
2023-04-18T19:16:23.199Z,94699.81
2023-04-18T19:18:50.723Z,94701.22
2023-04-18T19:21:17.533Z,94703.09
2023-04-18T19:23:44.229Z,94704.69
2023-04-18T19:26:10.911Z,94710.34
2023-04-18T19:28:37.638Z,94697.88
2023-04-18T19:31:04.528Z,94722.13
2023-04-18T19:33:31.200Z,94718.19
2023-04-18T19:35:58.451Z,94712.03
2023-04-18T19:38:25.122Z,94714.09
2023-04-18T19:40:51.884Z,94717.69
2023-04-18T19:43:18.644Z,94715.31
2023-04-18T19:45:45.375Z,94721.66
2023-04-18T19:48:12.126Z,94703.81
2023-04-18T19:50:40.387Z,94714.53
2023-04-18T19:53:07.180Z,94718.59
2023-04-18T19:55:34.160Z,94721.91
2023-04-18T19:58:00.910Z,94720.16
2023-04-18T20:00:28.495Z,94718.41
2023-04-18T20:02:55.539Z,94722.34
2023-04-18T20:05:22.712Z,94723.75
2023-04-18T20:07:49.459Z,94726.91
2023-04-18T20:10:21.785Z,94731.47
2023-04-18T20:12:49.924Z,94729.50
2023-04-18T20:15:17.081Z,94728.34
2023-04-18T20:17:43.845Z,94732.72
2023-04-18T20:20:11.467Z,94725.19
2023-04-18T20:22:40.446Z,94726.28
2023-04-18T20:25:07.365Z,94731.63
2023-04-18T20:27:34.025Z,94728.59
2023-04-18T20:30:00.709Z,94729.56
2023-04-18T20:32:28.139Z,94725.72
2023-04-18T20:34:54.824Z,94726.19
2023-04-18T20:37:21.775Z,94727.13
2023-04-18T20:39:48.440Z,94731.88
2023-04-18T20:42:15.866Z,94723.66
2023-04-18T20:44:46.906Z,94706.50
2023-04-18T20:47:15.451Z,94703.94
2023-04-18T20:49:42.616Z,94723.50
2023-04-18T20:52:14.502Z,94718.94
2023-04-18T20:54:43.946Z,94714.38
2023-04-18T20:57:10.719Z,94722.38
2023-04-18T20:59:37.394Z,94708.88
2023-04-18T21:02:04.451Z,94728.06
2023-04-18T21:04:31.340Z,94716.41
2023-04-18T21:06:58.216Z,94722.16
2023-04-18T21:09:24.988Z,94721.84
2023-04-18T21:11:51.676Z,94728.59
2023-04-18T21:14:18.370Z,94723.34
2023-04-18T21:16:45.029Z,94719.75
2023-04-18T21:19:11.696Z,94730.59
2023-04-18T21:21:38.420Z,94728.84
2023-04-18T21:24:05.757Z,94727.56
2023-04-18T21:26:32.507Z,94735.28
2023-04-18T21:29:01.486Z,94730.72
2023-04-18T21:31:31.034Z,94729.63
2023-04-18T21:33:59.729Z,94719.56
2023-04-18T21:36:28.220Z,94716.19
2023-04-18T21:38:56.466Z,94724.88
2023-04-18T21:41:24.226Z,94723.72
2023-04-18T21:43:51.077Z,94721.06
2023-04-18T21:46:18.401Z,94723.72
2023-04-18T21:48:46.589Z,94727.97
2023-04-18T21:51:15.718Z,94722.94
2023-04-18T21:53:42.752Z,94725.00
2023-04-18T21:56:09.692Z,94723.91
2023-04-18T21:58:36.510Z,94714.72
2023-04-18T22:01:03.400Z,94720.06
2023-04-18T22:03:31.647Z,94711.56
2023-04-18T22:05:58.957Z,94721.66
2023-04-18T22:08:26.330Z,94723.22
2023-04-18T22:10:55.233Z,94695.97
2023-04-18T22:13:22.783Z,94716.31
2023-04-18T22:15:51.571Z,94711.56
2023-04-18T22:18:19.385Z,94708.25
2023-04-18T22:20:47.033Z,94718.47
2023-04-18T22:23:14.339Z,94713.16
2023-04-18T22:25:41.280Z,94706.72
2023-04-18T22:28:08.192Z,94725.31
2023-04-18T22:30:35.160Z,94714.31
2023-04-18T22:33:01.922Z,94715.09
2023-04-18T22:35:28.701Z,94709.56
2023-04-18T22:37:56.246Z,94719.97
2023-04-18T22:40:23.022Z,94706.72
2023-04-18T22:42:51.964Z,94703.06
2023-04-18T22:45:19.551Z,94714.03
2023-04-18T22:47:46.830Z,94714.03
2023-04-18T22:50:14.127Z,94701.72
2023-04-18T22:52:41.387Z,94712.94
2023-04-18T22:55:08.903Z,94720.97
2023-04-18T22:57:35.699Z,94716.91
2023-04-18T23:00:02.778Z,94719.34
2023-04-18T23:02:29.576Z,94717.47
2023-04-18T23:04:58.443Z,94718.88
2023-04-18T23:07:25.398Z,94718.06
2023-04-18T23:09:52.302Z,94720.56
2023-04-18T23:12:19.053Z,94715.28
2023-04-18T23:14:45.905Z,94709.63
2023-04-18T23:17:12.602Z,94722.19
2023-04-18T23:19:39.355Z,94707.56
2023-04-18T23:22:06.056Z,94715.75
2023-04-18T23:24:32.782Z,94714.00
2023-04-18T23:26:59.517Z,94717.75
2023-04-18T23:29:26.229Z,94715.28
2023-04-18T23:31:52.990Z,94705.47
2023-04-18T23:34:19.819Z,94712.09
2023-04-18T23:36:46.782Z,94708.66
2023-04-18T23:39:13.784Z,94713.00
2023-04-18T23:41:41.026Z,94710.34
2023-04-18T23:44:08.008Z,94706.78
2023-04-18T23:46:36.356Z,94714.50
2023-04-18T23:49:03.660Z,94703.31
2023-04-18T23:51:31.269Z,94706.19
2023-04-18T23:53:57.916Z,94707.16
2023-04-18T23:56:24.694Z,94704.59
2023-04-18T23:58:51.775Z,94690.59
